Terminal Aerodrome Forecast
Issued by NWS

Home | Current Version | Previous Version | Text Only | Print | Product List | Glossary On
Versions: 1 2 3 4 5 6 7 8 9 10 11 12 13 14 15 16 17 18 19 20 21 22 23 24 25 26
831
FTUS46 KLOX 211943 AAA
TAFLGB
TAF AMD
KLGB 211943Z 2120/2218 28008KT P6SM FEW023 OVC040
     FM212100 30008KT P6SM SCT040
     FM220100 30012KT P6SM SKC
     FM220500 30007KT P6SM SKC
     FM221000 VRB03KT P6SM SKC=

USA.gov is the U.S. government's official web portal to all federal, state and local government web resources and services.